sensor_id;sensor_type;location;lat;lon;timestamp;pressure;altitude;pressure_sealevel;temperature;humidity
80139;BME280;69467;59.842;17.604;2024-01-30T00:01:21;102195.78;;;1.43;100.00
80139;BME280;69467;59.842;17.604;2024-01-30T00:03:46;102197.66;;;1.42;100.00
80139;BME280;69467;59.842;17.604;2024-01-30T00:06:12;102185.16;;;1.41;100.00
80139;BME280;69467;59.842;17.604;2024-01-30T00:08:37;102183.47;;;1.40;100.00
80139;BME280;69467;59.842;17.604;2024-01-30T00:11:02;102192.75;;;1.38;100.00
80139;BME280;69467;59.842;17.604;2024-01-30T00:13:27;102200.16;;;1.36;100.00
80139;BME280;69467;59.842;17.604;2024-01-30T00:15:53;102200.31;;;1.34;100.00
80139;BME280;69467;59.842;17.604;2024-01-30T00:18:19;102196.75;;;1.25;100.00
80139;BME280;69467;59.842;17.604;2024-01-30T00:20:44;102184.25;;;1.16;100.00
80139;BME280;69467;59.842;17.604;2024-01-30T00:23:09;102187.44;;;1.20;100.00
80139;BME280;69467;59.842;17.604;2024-01-30T00:25:35;102196.22;;;1.22;100.00
80139;BME280;69467;59.842;17.604;2024-01-30T00:28:00;102186.63;;;1.19;100.00
80139;BME280;69467;59.842;17.604;2024-01-30T00:30:25;102187.44;;;1.20;100.00
80139;BME280;69467;59.842;17.604;2024-01-30T00:32:50;102185.41;;;1.13;100.00
80139;BME280;69467;59.842;17.604;2024-01-30T00:35:16;102181.03;;;1.12;100.00
80139;BME280;69467;59.842;17.604;2024-01-30T00:37:41;102192.84;;;1.11;100.00
80139;BME280;69467;59.842;17.604;2024-01-30T00:40:06;102177.97;;;1.07;100.00
80139;BME280;69467;59.842;17.604;2024-01-30T00:42:32;102179.13;;;1.05;100.00
80139;BME280;69467;59.842;17.604;2024-01-30T00:44:57;102186.69;;;1.01;100.00
80139;BME280;69467;59.842;17.604;2024-01-30T00:47:23;102189.75;;;0.98;100.00
80139;BME280;69467;59.842;17.604;2024-01-30T00:49:48;102190.75;;;0.97;100.00
80139;BME280;69467;59.842;17.604;2024-01-30T00:52:13;102191.22;;;0.92;100.00
80139;BME280;69467;59.842;17.604;2024-01-30T00:54:38;102186.34;;;0.88;100.00
80139;BME280;69467;59.842;17.604;2024-01-30T00:57:04;102180.25;;;0.86;100.00
80139;BME280;69467;59.842;17.604;2024-01-30T00:59:29;102191.16;;;0.76;100.00
80139;BME280;69467;59.842;17.604;2024-01-30T01:01:54;102181.31;;;0.67;100.00
80139;BME280;69467;59.842;17.604;2024-01-30T01:04:20;102188.75;;;0.64;100.00
80139;BME280;69467;59.842;17.604;2024-01-30T01:06:46;102190.75;;;0.62;100.00
80139;BME280;69467;59.842;17.604;2024-01-30T01:09:11;102183.13;;;0.58;100.00
80139;BME280;69467;59.842;17.604;2024-01-30T01:11:37;102189.16;;;0.52;100.00
80139;BME280;69467;59.842;17.604;2024-01-30T01:14:03;102181.56;;;0.47;100.00
80139;BME280;69467;59.842;17.604;2024-01-30T01:16:28;102184.72;;;0.42;100.00
80139;BME280;69467;59.842;17.604;2024-01-30T01:18:53;102191.28;;;0.40;100.00
80139;BME280;69467;59.842;17.604;2024-01-30T01:21:19;102194.63;;;0.34;100.00
80139;BME280;69467;59.842;17.604;2024-01-30T01:23:44;102185.94;;;0.22;100.00
80139;BME280;69467;59.842;17.604;2024-01-30T01:26:09;102188.31;;;0.25;100.00
80139;BME280;69467;59.842;17.604;2024-01-30T01:28:35;102199.09;;;0.25;100.00
80139;BME280;69467;59.842;17.604;2024-01-30T01:31:00;102198.41;;;0.23;100.00
80139;BME280;69467;59.842;17.604;2024-01-30T01:33:30;102195.53;;;0.24;100.00
80139;BME280;69467;59.842;17.604;2024-01-30T01:35:57;102189.84;;;0.27;100.00
80139;BME280;69467;59.842;17.604;2024-01-30T01:38:22;102185.13;;;0.29;100.00
80139;BME280;69467;59.842;17.604;2024-01-30T01:40:47;102179.75;;;0.29;100.00
80139;BME280;69467;59.842;17.604;2024-01-30T01:43:12;102195.91;;;0.29;100.00
80139;BME280;69467;59.842;17.604;2024-01-30T01:45:38;102187.00;;;0.29;100.00
80139;BME280;69467;59.842;17.604;2024-01-30T01:48:03;102191.50;;;0.28;100.00
80139;BME280;69467;59.842;17.604;2024-01-30T01:50:28;102193.38;;;0.28;100.00
80139;BME280;69467;59.842;17.604;2024-01-30T01:52:54;102199.75;;;0.27;100.00
80139;BME280;69467;59.842;17.604;2024-01-30T01:55:20;102201.09;;;0.23;100.00
80139;BME280;69467;59.842;17.604;2024-01-30T01:57:52;102198.56;;;0.21;100.00
80139;BME280;69467;59.842;17.604;2024-01-30T02:00:17;102199.56;;;0.20;100.00
80139;BME280;69467;59.842;17.604;2024-01-30T02:02:44;102196.34;;;0.17;100.00
80139;BME280;69467;59.842;17.604;2024-01-30T02:05:10;102187.88;;;0.11;100.00
80139;BME280;69467;59.842;17.604;2024-01-30T02:07:36;102185.19;;;0.11;100.00
80139;BME280;69467;59.842;17.604;2024-01-30T02:10:01;102191.56;;;0.10;100.00
80139;BME280;69467;59.842;17.604;2024-01-30T02:12:26;102189.88;;;0.09;100.00
80139;BME280;69467;59.842;17.604;2024-01-30T02:14:52;102201.66;;;0.08;100.00
80139;BME280;69467;59.842;17.604;2024-01-30T02:17:18;102202.63;;;0.07;100.00
80139;BME280;69467;59.842;17.604;2024-01-30T02:19:44;102202.81;;;0.06;100.00
80139;BME280;69467;59.842;17.604;2024-01-30T02:22:09;102197.56;;;0.04;100.00
80139;BME280;69467;59.842;17.604;2024-01-30T02:24:34;102190.50;;;0.03;100.00
80139;BME280;69467;59.842;17.604;2024-01-30T02:26:59;102184.13;;;0.04;100.00
80139;BME280;69467;59.842;17.604;2024-01-30T02:29:25;102189.78;;;0.01;100.00
80139;BME280;69467;59.842;17.604;2024-01-30T02:31:50;102186.44;;;-0.01;100.00
80139;BME280;69467;59.842;17.604;2024-01-30T02:34:15;102189.13;;;-0.01;100.00
80139;BME280;69467;59.842;17.604;2024-01-30T02:36:44;102190.97;;;-0.02;100.00
80139;BME280;69467;59.842;17.604;2024-01-30T02:39:09;102199.38;;;-0.05;100.00
80139;BME280;69467;59.842;17.604;2024-01-30T02:41:34;102200.44;;;-0.15;100.00
80139;BME280;69467;59.842;17.604;2024-01-30T02:44:00;102201.13;;;-0.13;100.00
80139;BME280;69467;59.842;17.604;2024-01-30T02:46:25;102195.88;;;-0.15;100.00
80139;BME280;69467;59.842;17.604;2024-01-30T02:48:50;102191.38;;;-0.14;100.00
80139;BME280;69467;59.842;17.604;2024-01-30T02:51:16;102194.06;;;-0.14;100.00
80139;BME280;69467;59.842;17.604;2024-01-30T02:53:41;102195.06;;;-0.15;100.00
80139;BME280;69467;59.842;17.604;2024-01-30T02:56:06;102182.41;;;-0.15;100.00
80139;BME280;69467;59.842;17.604;2024-01-30T02:58:34;102185.13;;;-0.15;100.00
80139;BME280;69467;59.842;17.604;2024-01-30T03:01:00;102179.72;;;-0.15;100.00
80139;BME280;69467;59.842;17.604;2024-01-30T03:03:25;102181.59;;;-0.15;100.00
80139;BME280;69467;59.842;17.604;2024-01-30T03:05:50;102186.97;;;-0.15;100.00
80139;BME280;69467;59.842;17.604;2024-01-30T03:08:16;102192.53;;;-0.17;100.00
80139;BME280;69467;59.842;17.604;2024-01-30T03:10:41;102189.84;;;-0.17;100.00
80139;BME280;69467;59.842;17.604;2024-01-30T03:13:06;102193.69;;;-0.20;100.00
80139;BME280;69467;59.842;17.604;2024-01-30T03:15:32;102201.06;;;-0.22;100.00
80139;BME280;69467;59.842;17.604;2024-01-30T03:17:57;102186.50;;;-0.29;100.00
80139;BME280;69467;59.842;17.604;2024-01-30T03:20:22;102195.44;;;-0.28;100.00
80139;BME280;69467;59.842;17.604;2024-01-30T03:22:47;102197.28;;;-0.29;100.00
80139;BME280;69467;59.842;17.604;2024-01-30T03:25:13;102192.88;;;-0.30;100.00
80139;BME280;69467;59.842;17.604;2024-01-30T03:27:38;102199.28;;;-0.31;100.00
80139;BME280;69467;59.842;17.604;2024-01-30T03:30:03;102197.72;;;-0.34;100.00
80139;BME280;69467;59.842;17.604;2024-01-30T03:32:29;102201.41;;;-0.35;100.00
80139;BME280;69467;59.842;17.604;2024-01-30T03:34:54;102198.88;;;-0.36;100.00
80139;BME280;69467;59.842;17.604;2024-01-30T03:37:19;102202.72;;;-0.39;100.00
80139;BME280;69467;59.842;17.604;2024-01-30T03:39:45;102194.81;;;-0.40;100.00
80139;BME280;69467;59.842;17.604;2024-01-30T03:42:10;102198.13;;;-0.46;100.00
80139;BME280;69467;59.842;17.604;2024-01-30T03:44:35;102198.13;;;-0.46;100.00
80139;BME280;69467;59.842;17.604;2024-01-30T03:47:00;102204.50;;;-0.47;100.00
80139;BME280;69467;59.842;17.604;2024-01-30T03:49:26;102199.13;;;-0.47;100.00
80139;BME280;69467;59.842;17.604;2024-01-30T03:51:51;102196.59;;;-0.49;100.00
80139;BME280;69467;59.842;17.604;2024-01-30T03:54:16;102201.97;;;-0.49;100.00
80139;BME280;69467;59.842;17.604;2024-01-30T03:56:41;102197.41;;;-0.49;100.00
80139;BME280;69467;59.842;17.604;2024-01-30T03:59:07;102195.88;;;-0.51;100.00
80139;BME280;69467;59.842;17.604;2024-01-30T04:01:32;102197.75;;;-0.52;100.00
80139;BME280;69467;59.842;17.604;2024-01-30T04:03:57;102193.34;;;-0.53;100.00
80139;BME280;69467;59.842;17.604;2024-01-30T04:06:22;102190.94;;;-0.56;100.00
80139;BME280;69467;59.842;17.604;2024-01-30T04:08:48;102194.66;;;-0.57;100.00
80139;BME280;69467;59.842;17.604;2024-01-30T04:11:13;102192.97;;;-0.58;100.00
80139;BME280;69467;59.842;17.604;2024-01-30T04:13:38;102196.09;;;-0.62;100.00
80139;BME280;69467;59.842;17.604;2024-01-30T04:16:04;102207.03;;;-0.64;100.00
80139;BME280;69467;59.842;17.604;2024-01-30T04:18:29;102212.41;;;-0.64;100.00
80139;BME280;69467;59.842;17.604;2024-01-30T04:20:54;102211.69;;;-0.66;100.00
80139;BME280;69467;59.842;17.604;2024-01-30T04:23:20;102219.63;;;-0.65;100.00
80139;BME280;69467;59.842;17.604;2024-01-30T04:25:45;102213.25;;;-0.63;100.00
80139;BME280;69467;59.842;17.604;2024-01-30T04:28:10;102215.78;;;-0.62;100.00
80139;BME280;69467;59.842;17.604;2024-01-30T04:30:38;102217.63;;;-0.62;100.00
80139;BME280;69467;59.842;17.604;2024-01-30T04:33:04;102215.78;;;-0.62;100.00
80139;BME280;69467;59.842;17.604;2024-01-30T04:35:29;102205.88;;;-0.61;100.00
80139;BME280;69467;59.842;17.604;2024-01-30T04:37:54;102211.25;;;-0.61;100.00
80139;BME280;69467;59.842;17.604;2024-01-30T04:40:20;102208.84;;;-0.65;100.00
80139;BME280;69467;59.842;17.604;2024-01-30T04:42:45;102204.47;;;-0.66;100.00
80139;BME280;69467;59.842;17.604;2024-01-30T04:45:11;102199.25;;;-0.67;100.00
80139;BME280;69467;59.842;17.604;2024-01-30T04:47:37;102196.38;;;-0.66;100.00
80139;BME280;69467;59.842;17.604;2024-01-30T04:50:02;102195.28;;;-0.63;100.00
80139;BME280;69467;59.842;17.604;2024-01-30T04:52:29;102197.09;;;-0.63;100.00
80139;BME280;69467;59.842;17.604;2024-01-30T04:54:55;102186.16;;;-0.62;100.00
80139;BME280;69467;59.842;17.604;2024-01-30T04:57:20;102193.41;;;-0.62;100.00
80139;BME280;69467;59.842;17.604;2024-01-30T04:59:45;102190.41;;;-0.59;100.00
80139;BME280;69467;59.842;17.604;2024-01-30T05:02:10;102189.41;;;-0.58;100.00
80139;BME280;69467;59.842;17.604;2024-01-30T05:04:36;102201.03;;;-0.58;100.00
80139;BME280;69467;59.842;17.604;2024-01-30T05:07:01;102185.72;;;-0.57;100.00
80139;BME280;69467;59.842;17.604;2024-01-30T05:09:26;102185.56;;;-0.56;100.00
80139;BME280;69467;59.842;17.604;2024-01-30T05:11:51;102182.88;;;-0.56;100.00
80139;BME280;69467;59.842;17.604;2024-01-30T05:14:17;102178.34;;;-0.55;100.00
80139;BME280;69467;59.842;17.604;2024-01-30T05:16:43;102182.88;;;-0.56;100.00
80139;BME280;69467;59.842;17.604;2024-01-30T05:19:11;102191.66;;;-0.54;100.00
80139;BME280;69467;59.842;17.604;2024-01-30T05:21:37;102195.34;;;-0.55;100.00
80139;BME280;69467;59.842;17.604;2024-01-30T05:24:02;102198.88;;;-0.54;100.00
80139;BME280;69467;59.842;17.604;2024-01-30T05:26:27;102203.41;;;-0.55;100.00
80139;BME280;69467;59.842;17.604;2024-01-30T05:28:52;102184.91;;;-0.58;100.00
80139;BME280;69467;59.842;17.604;2024-01-30T05:31:17;102196.09;;;-0.62;100.00
80139;BME280;69467;59.842;17.604;2024-01-30T05:33:43;102202.47;;;-0.63;100.00
80139;BME280;69467;59.842;17.604;2024-01-30T05:36:08;102204.34;;;-0.64;100.00
80139;BME280;69467;59.842;17.604;2024-01-30T05:38:36;102204.19;;;-0.62;100.00
80139;BME280;69467;59.842;17.604;2024-01-30T05:41:04;102200.66;;;-0.63;100.00
80139;BME280;69467;59.842;17.604;2024-01-30T05:43:30;102200.66;;;-0.63;100.00
80139;BME280;69467;59.842;17.604;2024-01-30T05:45:55;102202.31;;;-0.62;100.00
80139;BME280;69467;59.842;17.604;2024-01-30T05:48:20;102196.94;;;-0.62;100.00
80139;BME280;69467;59.842;17.604;2024-01-30T05:50:46;102201.47;;;-0.62;100.00
80139;BME280;69467;59.842;17.604;2024-01-30T05:53:11;102194.25;;;-0.62;100.00
80139;BME280;69467;59.842;17.604;2024-01-30T05:55:36;102205.16;;;-0.63;100.00
80139;BME280;69467;59.842;17.604;2024-01-30T05:58:01;102200.94;;;-0.66;100.00
80139;BME280;69467;59.842;17.604;2024-01-30T06:00:26;102199.84;;;-0.73;100.00
80139;BME280;69467;59.842;17.604;2024-01-30T06:02:52;102200.44;;;-0.79;100.00
80139;BME280;69467;59.842;17.604;2024-01-30T06:05:17;102202.13;;;-0.78;100.00
80139;BME280;69467;59.842;17.604;2024-01-30T06:07:42;102201.97;;;-0.77;100.00
80139;BME280;69467;59.842;17.604;2024-01-30T06:10:08;102198.75;;;-0.81;100.00
80139;BME280;69467;59.842;17.604;2024-01-30T06:12:34;102190.38;;;-0.77;100.00
80139;BME280;69467;59.842;17.604;2024-01-30T06:14:59;102191.06;;;-0.75;100.00
80139;BME280;69467;59.842;17.604;2024-01-30T06:17:24;102189.09;;;-0.73;100.00
80139;BME280;69467;59.842;17.604;2024-01-30T06:19:49;102182.72;;;-0.72;100.00
80139;BME280;69467;59.842;17.604;2024-01-30T06:22:15;102183.31;;;-0.78;100.00
80139;BME280;69467;59.842;17.604;2024-01-30T06:24:40;102186.59;;;-0.85;100.00
80139;BME280;69467;59.842;17.604;2024-01-30T06:27:06;102184.19;;;-0.88;100.00
80139;BME280;69467;59.842;17.604;2024-01-30T06:29:31;102184.91;;;-0.86;100.00
80139;BME280;69467;59.842;17.604;2024-01-30T06:31:56;102188.47;;;-0.85;100.00
80139;BME280;69467;59.842;17.604;2024-01-30T06:34:22;102190.13;;;-0.84;100.00
80139;BME280;69467;59.842;17.604;2024-01-30T06:36:47;102196.22;;;-0.82;100.00
80139;BME280;69467;59.842;17.604;2024-01-30T06:39:12;102194.22;;;-0.80;100.00
80139;BME280;69467;59.842;17.604;2024-01-30T06:41:38;102190.38;;;-0.77;100.00
80139;BME280;69467;59.842;17.604;2024-01-30T06:44:03;102181.31;;;-0.76;100.00
80139;BME280;69467;59.842;17.604;2024-01-30T06:46:33;102176.06;;;-0.78;100.00
80139;BME280;69467;59.842;17.604;2024-01-30T06:48:59;102182.47;;;-0.79;100.00
80139;BME280;69467;59.842;17.604;2024-01-30T06:51:24;102180.63;;;-0.78;100.00
80139;BME280;69467;59.842;17.604;2024-01-30T06:53:49;102185.69;;;-0.75;100.00
80139;BME280;69467;59.842;17.604;2024-01-30T06:56:15;102189.53;;;-0.78;100.00
80139;BME280;69467;59.842;17.604;2024-01-30T06:58:41;102175.84;;;-0.85;100.00
80139;BME280;69467;59.842;17.604;2024-01-30T07:01:07;102196.09;;;-0.90;100.00
80139;BME280;69467;59.842;17.604;2024-01-30T07:03:32;102192.88;;;-0.94;100.00
80139;BME280;69467;59.842;17.604;2024-01-30T07:05:57;102192.22;;;-1.06;100.00
80139;BME280;69467;59.842;17.604;2024-01-30T07:08:22;102192.66;;;-1.10;100.00
80139;BME280;69467;59.842;17.604;2024-01-30T07:10:48;102204.13;;;-1.08;100.00
80139;BME280;69467;59.842;17.604;2024-01-30T07:13:14;102200.31;;;-1.06;100.00
80139;BME280;69467;59.842;17.604;2024-01-30T07:15:41;102196.63;;;-1.05;100.00
80139;BME280;69467;59.842;17.604;2024-01-30T07:18:06;102193.47;;;-1.00;100.00
80139;BME280;69467;59.842;17.604;2024-01-30T07:20:32;102194.00;;;-0.97;100.00
80139;BME280;69467;59.842;17.604;2024-01-30T07:22:58;102190.88;;;-0.92;100.00
80139;BME280;69467;59.842;17.604;2024-01-30T07:25:23;102184.34;;;-0.89;100.00
80139;BME280;69467;59.842;17.604;2024-01-30T07:27:52;102183.06;;;-0.85;100.00
80139;BME280;69467;59.842;17.604;2024-01-30T07:30:17;102184.75;;;-0.84;100.00
80139;BME280;69467;59.842;17.604;2024-01-30T07:32:43;102187.31;;;-0.83;100.00
80139;BME280;69467;59.842;17.604;2024-01-30T07:35:09;102185.28;;;-0.81;100.00
80139;BME280;69467;59.842;17.604;2024-01-30T07:37:34;102177.00;;;-0.87;100.00
80139;BME280;69467;59.842;17.604;2024-01-30T07:39:59;102183.22;;;-0.87;100.00
80139;BME280;69467;59.842;17.604;2024-01-30T07:42:24;102177.44;;;-0.92;100.00
80139;BME280;69467;59.842;17.604;2024-01-30T07:44:50;102181.13;;;-0.93;100.00
80139;BME280;69467;59.842;17.604;2024-01-30T07:47:15;102177.59;;;-0.93;100.00
80139;BME280;69467;59.842;17.604;2024-01-30T07:49:41;102175.34;;;-0.98;100.00
80139;BME280;69467;59.842;17.604;2024-01-30T07:52:06;102172.50;;;-0.97;100.00
80139;BME280;69467;59.842;17.604;2024-01-30T07:54:32;102174.50;;;-0.99;100.00
80139;BME280;69467;59.842;17.604;2024-01-30T07:56:58;102175.34;;;-0.98;100.00
80139;BME280;69467;59.842;17.604;2024-01-30T07:59:23;102177.75;;;-0.95;100.00
80139;BME280;69467;59.842;17.604;2024-01-30T08:01:49;102188.03;;;-0.90;100.00
80139;BME280;69467;59.842;17.604;2024-01-30T08:04:15;102191.97;;;-0.85;100.00
80139;BME280;69467;59.842;17.604;2024-01-30T08:06:40;102185.44;;;-0.82;100.00
80139;BME280;69467;59.842;17.604;2024-01-30T08:09:05;102187.69;;;-0.77;100.00
80139;BME280;69467;59.842;17.604;2024-01-30T08:11:32;102187.00;;;-0.79;100.00
80139;BME280;69467;59.842;17.604;2024-01-30T08:13:57;102181.44;;;-0.78;100.00
80139;BME280;69467;59.842;17.604;2024-01-30T08:16:22;102189.94;;;-0.73;100.00
80139;BME280;69467;59.842;17.604;2024-01-30T08:18:48;102184.94;;;-0.68;100.00
80139;BME280;69467;59.842;17.604;2024-01-30T08:21:13;102181.09;;;-0.65;100.00
80139;BME280;69467;59.842;17.604;2024-01-30T08:23:38;102187.19;;;-0.63;100.00
80139;BME280;69467;59.842;17.604;2024-01-30T08:26:04;102189.19;;;-0.65;100.00
80139;BME280;69467;59.842;17.604;2024-01-30T08:28:29;102184.34;;;-0.61;100.00
80139;BME280;69467;59.842;17.604;2024-01-30T08:30:54;102187.72;;;-0.59;100.00
80139;BME280;69467;59.842;17.604;2024-01-30T08:33:20;102178.50;;;-0.57;100.00
80139;BME280;69467;59.842;17.604;2024-01-30T08:35:45;102179.19;;;-0.55;100.00
80139;BME280;69467;59.842;17.604;2024-01-30T08:38:10;102188.88;;;-0.62;100.00
80139;BME280;69467;59.842;17.604;2024-01-30T08:40:37;102190.41;;;-0.59;100.00
80139;BME280;69467;59.842;17.604;2024-01-30T08:43:03;102190.81;;;-0.54;100.00
80139;BME280;69467;59.842;17.604;2024-01-30T08:45:29;102192.34;;;-0.52;100.00
80139;BME280;69467;59.842;17.604;2024-01-30T08:47:54;102186.50;;;-0.47;100.00
80139;BME280;69467;59.842;17.604;2024-01-30T08:50:19;102191.44;;;-0.42;100.00
80139;BME280;69467;59.842;17.604;2024-01-30T08:52:45;102180.81;;;-0.44;100.00
80139;BME280;69467;59.842;17.604;2024-01-30T08:55:10;102177.81;;;-0.41;100.00
80139;BME280;69467;59.842;17.604;2024-01-30T08:57:35;102184.34;;;-0.43;100.00
80139;BME280;69467;59.842;17.604;2024-01-30T09:00:00;102180.28;;;-0.47;100.00
80139;BME280;69467;59.842;17.604;2024-01-30T09:02:29;102180.28;;;-0.47;100.00
80139;BME280;69467;59.842;17.604;2024-01-30T09:04:54;102189.72;;;-0.43;100.00
80139;BME280;69467;59.842;17.604;2024-01-30T09:07:20;102188.56;;;-0.41;100.00
80139;BME280;69467;59.842;17.604;2024-01-30T09:09:45;102187.19;;;-0.45;100.00
80139;BME280;69467;59.842;17.604;2024-01-30T09:12:10;102185.88;;;-0.41;100.00
80139;BME280;69467;59.842;17.604;2024-01-30T09:16:07;102178.06;;;-0.34;100.00
80139;BME280;69467;59.842;17.604;2024-01-30T09:18:32;102173.22;;;-0.30;100.00
80139;BME280;69467;59.842;17.604;2024-01-30T09:20:58;102169.53;;;-0.29;100.00
80139;BME280;69467;59.842;17.604;2024-01-30T09:23:23;102177.97;;;-0.24;100.00
80139;BME280;69467;59.842;17.604;2024-01-30T09:25:49;102167.38;;;-0.26;100.00
80139;BME280;69467;59.842;17.604;2024-01-30T09:28:17;102177.97;;;-0.24;100.00
80139;BME280;69467;59.842;17.604;2024-01-30T09:30:42;102160.66;;;-0.22;100.00
80139;BME280;69467;59.842;17.604;2024-01-30T09:33:08;102166.44;;;-0.17;100.00
80139;BME280;69467;59.842;17.604;2024-01-30T09:35:33;102161.75;;;-0.14;100.00
80139;BME280;69467;59.842;17.604;2024-01-30T09:37:59;102164.44;;;-0.14;100.00
80139;BME280;69467;59.842;17.604;2024-01-30T09:40:24;102155.19;;;-0.12;100.00
80139;BME280;69467;59.842;17.604;2024-01-30T09:42:50;102153.97;;;-0.18;100.00
80139;BME280;69467;59.842;17.604;2024-01-30T09:45:19;102143.69;;;-0.22;100.00
80139;BME280;69467;59.842;17.604;2024-01-30T09:47:45;102148.91;;;-0.21;100.00
80139;BME280;69467;59.842;17.604;2024-01-30T09:50:13;102143.56;;;-0.12;100.00
80139;BME280;69467;59.842;17.604;2024-01-30T09:52:38;102146.66;;;-0.07;100.00
80139;BME280;69467;59.842;17.604;2024-01-30T09:55:04;102148.44;;;-0.16;100.00
80139;BME280;69467;59.842;17.604;2024-01-30T09:57:30;102138.19;;;-0.12;100.00
80139;BME280;69467;59.842;17.604;2024-01-30T09:59:56;102137.50;;;-0.14;100.00
80139;BME280;69467;59.842;17.604;2024-01-30T10:02:21;102143.56;;;-0.12;100.00
80139;BME280;69467;59.842;17.604;2024-01-30T10:04:47;102133.94;;;-0.15;100.00
80139;BME280;69467;59.842;17.604;2024-01-30T10:07:14;102133.81;;;-0.13;100.00
80139;BME280;69467;59.842;17.604;2024-01-30T10:09:39;102126.28;;;-0.10;100.00
80139;BME280;69467;59.842;17.604;2024-01-30T10:12:05;102131.16;;;-0.05;100.00
80139;BME280;69467;59.842;17.604;2024-01-30T10:14:31;102131.03;;;-0.04;100.00
80139;BME280;69467;59.842;17.604;2024-01-30T10:16:57;102128.00;;;-0.01;100.00
80139;BME280;69467;59.842;17.604;2024-01-30T10:19:22;102126.84;;;0.02;100.00
80139;BME280;69467;59.842;17.604;2024-01-30T10:21:47;102127.38;;;0.06;100.00
80139;BME280;69467;59.842;17.604;2024-01-30T10:24:13;102132.31;;;0.10;100.00
80139;BME280;69467;59.842;17.604;2024-01-30T10:26:39;102130.31;;;0.12;100.00
80139;BME280;69467;59.842;17.604;2024-01-30T10:29:04;102128.97;;;0.17;100.00
80139;BME280;69467;59.842;17.604;2024-01-30T10:31:30;102123.44;;;0.18;100.00
80139;BME280;69467;59.842;17.604;2024-01-30T10:33:55;102124.94;;;0.21;100.00
80139;BME280;69467;59.842;17.604;2024-01-30T10:36:20;102104.91;;;0.15;100.00
80139;BME280;69467;59.842;17.604;2024-01-30T10:38:51;102094.47;;;0.20;100.00
80139;BME280;69467;59.842;17.604;2024-01-30T10:41:16;102097.34;;;0.19;100.00
80139;BME280;69467;59.842;17.604;2024-01-30T10:43:47;102105.25;;;0.20;100.00
80139;BME280;69467;59.842;17.604;2024-01-30T10:48:42;102095.13;;;0.14;100.00
80139;BME280;69467;59.842;17.604;2024-01-30T10:51:09;102091.44;;;0.15;100.00
80139;BME280;69467;59.842;17.604;2024-01-30T10:53:35;102090.56;;;0.14;100.00
80139;BME280;69467;59.842;17.604;2024-01-30T10:56:01;102084.00;;;0.17;100.00
80139;BME280;69467;59.842;17.604;2024-01-30T10:58:27;102074.94;;;0.18;100.00
80139;BME280;69467;59.842;17.604;2024-01-30T11:00:53;102073.56;;;0.14;100.00
80139;BME280;69467;59.842;17.604;2024-01-30T11:03:19;102055.53;;;0.14;100.00
80139;BME280;69467;59.842;17.604;2024-01-30T11:05:49;102061.94;;;0.13;100.00
80139;BME280;69467;59.842;17.604;2024-01-30T11:08:22;102060.47;;;0.19;100.00
80139;BME280;69467;59.842;17.604;2024-01-30T11:10:49;102062.69;;;0.24;100.00
80139;BME280;69467;59.842;17.604;2024-01-30T11:13:15;102059.28;;;0.22;100.00
80139;BME280;69467;59.842;17.604;2024-01-30T11:15:40;102061.69;;;0.25;100.00
80139;BME280;69467;59.842;17.604;2024-01-30T11:18:06;102068.78;;;0.34;100.00
80139;BME280;69467;59.842;17.604;2024-01-30T11:20:31;102048.41;;;0.31;100.00
80139;BME280;69467;59.842;17.604;2024-01-30T11:22:58;102056.00;;;0.36;100.00
80139;BME280;69467;59.842;17.604;2024-01-30T11:25:24;102050.63;;;0.36;100.00
80139;BME280;69467;59.842;17.604;2024-01-30T11:27:54;102052.31;;;0.37;100.00
80139;BME280;69467;59.842;17.604;2024-01-30T11:30:23;102042.34;;;0.38;100.00
80139;BME280;69467;59.842;17.604;2024-01-30T11:32:58;102046.56;;;0.40;100.00
80139;BME280;69467;59.842;17.604;2024-01-30T11:35:24;102045.88;;;0.38;100.00
80139;BME280;69467;59.842;17.604;2024-01-30T11:37:50;102038.84;;;0.37;100.00
80139;BME280;69467;59.842;17.604;2024-01-30T11:40:16;102032.75;;;0.35;100.00
80139;BME280;69467;59.842;17.604;2024-01-30T11:42:42;102028.56;;;0.41;100.00
80139;BME280;69467;59.842;17.604;2024-01-30T11:45:08;102020.16;;;0.44;100.00
80139;BME280;69467;59.842;17.604;2024-01-30T11:47:37;102012.75;;;0.46;100.00
80139;BME280;69467;59.842;17.604;2024-01-30T11:50:04;102005.84;;;0.52;100.00
80139;BME280;69467;59.842;17.604;2024-01-30T11:52:32;101993.06;;;0.54;100.00
80139;BME280;69467;59.842;17.604;2024-01-30T11:54:58;101996.97;;;0.59;100.00
80139;BME280;69467;59.842;17.604;2024-01-30T11:57:23;102003.50;;;0.57;100.00
80139;BME280;69467;59.842;17.604;2024-01-30T11:59:49;102000.16;;;0.55;100.00
80139;BME280;69467;59.842;17.604;2024-01-30T12:02:17;102000.16;;;0.55;100.00
80139;BME280;69467;59.842;17.604;2024-01-30T12:04:42;101992.06;;;0.55;100.00
80139;BME280;69467;59.842;17.604;2024-01-30T12:07:08;102000.63;;;0.50;100.00
80139;BME280;69467;59.842;17.604;2024-01-30T12:09:33;102004.16;;;0.51;100.00
80139;BME280;69467;59.842;17.604;2024-01-30T12:11:58;102010.56;;;0.50;100.00
80139;BME280;69467;59.842;17.604;2024-01-30T12:14:25;102011.94;;;0.54;100.00
80139;BME280;69467;59.842;17.604;2024-01-30T12:16:51;102008.06;;;0.56;100.00
80139;BME280;69467;59.842;17.604;2024-01-30T12:19:23;101998.28;;;0.55;100.00
80139;BME280;69467;59.842;17.604;2024-01-30T12:21:56;101997.63;;;0.53;100.00
80139;BME280;69467;59.842;17.604;2024-01-30T12:24:25;101998.44;;;0.54;100.00
80139;BME280;69467;59.842;17.604;2024-01-30T12:26:50;101997.44;;;0.55;100.00
80139;BME280;69467;59.842;17.604;2024-01-30T12:29:17;101982.28;;;0.54;100.00